sensor_id;sensor_type;location;lat;lon;timestamp;pressure;altitude;pressure_sealevel;temperature;humidity
79006;BME280;69202;45.498;-73.582;2023-07-31T00:02:01;100535.59;;;20.11;64.90
79006;BME280;69202;45.498;-73.582;2023-07-31T00:04:27;100463.63;;;19.51;65.23
79006;BME280;69202;45.498;-73.582;2023-07-31T00:06:56;100123.84;;;17.45;65.44
79006;BME280;69202;45.498;-73.582;2023-07-31T00:09:25;100557.41;;;19.85;65.81
79006;BME280;69202;45.498;-73.582;2023-07-31T00:11:54;100585.00;;;20.11;65.39
79006;BME280;69202;45.498;-73.582;2023-07-31T00:14:20;100481.69;;;19.47;64.59
79006;BME280;69202;45.498;-73.582;2023-07-31T00:16:46;100572.91;;;20.02;63.21
79006;BME280;69202;45.498;-73.582;2023-07-31T00:19:12;100423.94;;;18.85;61.58
79006;BME280;69202;45.498;-73.582;2023-07-31T00:21:38;100458.94;;;19.10;62.49
79006;BME280;69202;45.498;-73.582;2023-07-31T00:24:04;100481.16;;;19.08;63.08
79006;BME280;69202;45.498;-73.582;2023-07-31T00:26:30;100396.88;;;18.61;64.40
79006;BME280;69202;45.498;-73.582;2023-07-31T00:28:56;100542.84;;;19.48;66.35
79006;BME280;69202;45.498;-73.582;2023-07-31T00:31:21;100524.66;;;19.37;65.88
79006;BME280;69202;45.498;-73.582;2023-07-31T00:33:48;100589.44;;;19.70;65.77
79006;BME280;69202;45.498;-73.582;2023-07-31T00:36:14;100549.31;;;19.64;65.50
79006;BME280;69202;45.498;-73.582;2023-07-31T00:38:40;100620.88;;;19.94;63.21
79006;BME280;69202;45.498;-73.582;2023-07-31T00:41:06;100590.28;;;19.75;61.91
79006;BME280;69202;45.498;-73.582;2023-07-31T00:43:32;100367.94;;;18.43;60.69
79006;BME280;69202;45.498;-73.582;2023-07-31T00:45:58;100635.31;;;20.22;62.62
79006;BME280;69202;45.498;-73.582;2023-07-31T00:48:24;100575.25;;;19.88;63.78
79006;BME280;69202;45.498;-73.582;2023-07-31T00:50:54;100288.25;;;18.35;64.32
79006;BME280;69202;45.498;-73.582;2023-07-31T00:53:20;100628.41;;;20.61;65.11
79006;BME280;69202;45.498;-73.582;2023-07-31T00:55:46;100503.47;;;20.01;65.04
79006;BME280;69202;45.498;-73.582;2023-07-31T00:58:12;100456.94;;;19.79;64.84
79006;BME280;69202;45.498;-73.582;2023-07-31T01:00:38;100605.66;;;20.66;62.39
79006;BME280;69202;45.498;-73.582;2023-07-31T01:03:04;100610.31;;;20.70;59.58
79006;BME280;69202;45.498;-73.582;2023-07-31T01:05:49;100525.94;;;19.98;60.30
79006;BME280;69202;45.498;-73.582;2023-07-31T01:08:41;100612.47;;;20.63;61.71
79006;BME280;69202;45.498;-73.582;2023-07-31T01:11:33;100604.81;;;20.65;63.73
79006;BME280;69202;45.498;-73.582;2023-07-31T01:14:00;100389.75;;;19.35;64.89
79006;BME280;69202;45.498;-73.582;2023-07-31T01:16:26;100491.28;;;19.82;65.44
79006;BME280;69202;45.498;-73.582;2023-07-31T01:18:52;100274.16;;;18.58;65.00
79006;BME280;69202;45.498;-73.582;2023-07-31T01:21:29;100350.84;;;19.38;64.70
79006;BME280;69202;45.498;-73.582;2023-07-31T01:26:38;100340.69;;;19.38;60.96
79006;BME280;69202;45.498;-73.582;2023-07-31T01:29:37;100581.50;;;20.78;58.78
79006;BME280;69202;45.498;-73.582;2023-07-31T01:32:07;100226.06;;;18.30;59.82
79006;BME280;69202;45.498;-73.582;2023-07-31T01:34:35;100614.94;;;20.60;61.59
79006;BME280;69202;45.498;-73.582;2023-07-31T01:37:02;100293.47;;;18.73;63.19
79006;BME280;69202;45.498;-73.582;2023-07-31T01:39:28;100592.97;;;20.60;64.89
79006;BME280;69202;45.498;-73.582;2023-07-31T01:41:54;100649.94;;;20.80;65.63
79006;BME280;69202;45.498;-73.582;2023-07-31T01:44:21;100503.13;;;19.93;65.63
79006;BME280;69202;45.498;-73.582;2023-07-31T01:46:47;100509.28;;;20.15;66.05
79006;BME280;69202;45.498;-73.582;2023-07-31T01:49:12;100477.66;;;20.02;65.06
79006;BME280;69202;45.498;-73.582;2023-07-31T01:51:38;100607.34;;;20.77;62.60
79006;BME280;69202;45.498;-73.582;2023-07-31T01:54:04;100401.06;;;19.43;60.44
79006;BME280;69202;45.498;-73.582;2023-07-31T01:56:31;100481.94;;;19.83;60.84
79006;BME280;69202;45.498;-73.582;2023-07-31T01:58:57;100342.69;;;19.00;62.11
79006;BME280;69202;45.498;-73.582;2023-07-31T02:01:23;100459.63;;;19.69;63.49
79006;BME280;69202;45.498;-73.582;2023-07-31T02:03:49;100230.44;;;18.31;64.75
79006;BME280;69202;45.498;-73.582;2023-07-31T02:06:15;100291.63;;;18.84;65.72
79006;BME280;69202;45.498;-73.582;2023-07-31T02:08:40;100317.38;;;18.83;66.12
79006;BME280;69202;45.498;-73.582;2023-07-31T02:11:09;100354.00;;;19.14;66.35
79006;BME280;69202;45.498;-73.582;2023-07-31T02:13:35;100382.97;;;19.42;66.18
79006;BME280;69202;45.498;-73.582;2023-07-31T02:16:01;100303.19;;;18.91;65.76
79006;BME280;69202;45.498;-73.582;2023-07-31T02:18:27;100513.13;;;20.19;65.54
79006;BME280;69202;45.498;-73.582;2023-07-31T02:20:53;100342.91;;;19.41;64.26
79006;BME280;69202;45.498;-73.582;2023-07-31T02:23:19;100605.75;;;20.96;62.34
79006;BME280;69202;45.498;-73.582;2023-07-31T02:25:45;100256.66;;;18.59;60.08
79006;BME280;69202;45.498;-73.582;2023-07-31T02:28:12;100391.63;;;19.24;60.26
79006;BME280;69202;45.498;-73.582;2023-07-31T02:30:43;100223.59;;;18.34;61.42
79006;BME280;69202;45.498;-73.582;2023-07-31T02:33:09;100446.28;;;19.83;63.03
79006;BME280;69202;45.498;-73.582;2023-07-31T02:35:35;100558.63;;;20.57;64.28
79006;BME280;69202;45.498;-73.582;2023-07-31T02:38:04;100567.72;;;20.68;64.95
79006;BME280;69202;45.498;-73.582;2023-07-31T02:40:30;100566.91;;;20.72;66.00
79006;BME280;69202;45.498;-73.582;2023-07-31T02:42:56;100601.03;;;20.92;66.31
79006;BME280;69202;45.498;-73.582;2023-07-31T02:45:22;100534.19;;;20.56;65.80
79006;BME280;69202;45.498;-73.582;2023-07-31T02:47:48;100601.34;;;21.00;65.81
79006;BME280;69202;45.498;-73.582;2023-07-31T02:50:13;100505.84;;;20.45;65.40
79006;BME280;69202;45.498;-73.582;2023-07-31T02:52:39;100424.13;;;20.05;65.01
79006;BME280;69202;45.498;-73.582;2023-07-31T02:55:06;100528.44;;;20.67;64.79
79006;BME280;69202;45.498;-73.582;2023-07-31T02:57:32;100521.31;;;20.77;63.48
79006;BME280;69202;45.498;-73.582;2023-07-31T02:59:58;100425.53;;;20.12;60.66
79006;BME280;69202;45.498;-73.582;2023-07-31T03:02:24;100585.66;;;20.91;58.35
79006;BME280;69202;45.498;-73.582;2023-07-31T03:04:50;100573.81;;;20.80;56.98
79006;BME280;69202;45.498;-73.582;2023-07-31T03:07:16;100430.31;;;19.75;57.92
79006;BME280;69202;45.498;-73.582;2023-07-31T03:09:42;100552.56;;;20.50;60.25
79006;BME280;69202;45.498;-73.582;2023-07-31T03:12:08;100321.38;;;19.13;61.94
79006;BME280;69202;45.498;-73.582;2023-07-31T03:14:34;100282.25;;;18.75;63.30
79006;BME280;69202;45.498;-73.582;2023-07-31T03:17:00;100483.47;;;20.16;64.73
79006;BME280;69202;45.498;-73.582;2023-07-31T03:19:26;100440.06;;;19.50;66.84
79006;BME280;69202;45.498;-73.582;2023-07-31T03:21:52;100571.28;;;20.11;68.55
79006;BME280;69202;45.498;-73.582;2023-07-31T03:24:17;100591.31;;;20.06;69.59
79006;BME280;69202;45.498;-73.582;2023-07-31T03:26:43;100589.06;;;19.98;70.38
79006;BME280;69202;45.498;-73.582;2023-07-31T03:29:09;100592.88;;;19.97;70.04
79006;BME280;69202;45.498;-73.582;2023-07-31T03:31:35;100529.31;;;19.36;70.48
79006;BME280;69202;45.498;-73.582;2023-07-31T03:34:01;100539.63;;;19.19;72.00
79006;BME280;69202;45.498;-73.582;2023-07-31T03:36:27;100596.19;;;19.30;70.36
79006;BME280;69202;45.498;-73.582;2023-07-31T03:38:53;100590.97;;;19.01;68.11
79006;BME280;69202;45.498;-73.582;2023-07-31T03:41:19;100480.34;;;17.88;68.68
79006;BME280;69202;45.498;-73.582;2023-07-31T03:43:50;100513.44;;;18.08;70.60
79006;BME280;69202;45.498;-73.582;2023-07-31T03:46:22;100451.56;;;17.64;71.24
79006;BME280;69202;45.498;-73.582;2023-07-31T03:48:48;100622.78;;;18.81;73.76
79006;BME280;69202;45.498;-73.582;2023-07-31T03:51:14;100583.81;;;18.73;74.61
79006;BME280;69202;45.498;-73.582;2023-07-31T03:53:40;100598.94;;;18.59;74.20
79006;BME280;69202;45.498;-73.582;2023-07-31T03:56:06;100559.34;;;18.23;74.86
79006;BME280;69202;45.498;-73.582;2023-07-31T03:58:32;100665.25;;;19.05;74.87
79006;BME280;69202;45.498;-73.582;2023-07-31T04:00:58;100529.81;;;18.25;75.01
79006;BME280;69202;45.498;-73.582;2023-07-31T04:03:24;100631.19;;;19.23;74.59
79006;BME280;69202;45.498;-73.582;2023-07-31T04:05:50;100439.63;;;17.92;73.89
79006;BME280;69202;45.498;-73.582;2023-07-31T04:08:16;100542.56;;;18.63;72.74
79006;BME280;69202;45.498;-73.582;2023-07-31T04:10:42;100616.09;;;19.20;70.39
79006;BME280;69202;45.498;-73.582;2023-07-31T04:13:08;100448.22;;;18.00;67.56
79006;BME280;69202;45.498;-73.582;2023-07-31T04:15:34;100396.38;;;17.67;66.15
79006;BME280;69202;45.498;-73.582;2023-07-31T04:17:59;100565.66;;;18.94;67.05
79006;BME280;69202;45.498;-73.582;2023-07-31T04:20:25;100459.13;;;18.66;68.20
79006;BME280;69202;45.498;-73.582;2023-07-31T04:22:51;100280.28;;;17.52;68.55
79006;BME280;69202;45.498;-73.582;2023-07-31T04:25:17;100460.81;;;18.72;69.93
79006;BME280;69202;45.498;-73.582;2023-07-31T04:27:43;100453.06;;;18.96;70.59
79006;BME280;69202;45.498;-73.582;2023-07-31T04:30:09;100455.59;;;19.02;71.07
79006;BME280;69202;45.498;-73.582;2023-07-31T04:32:35;100501.25;;;19.19;70.97
79006;BME280;69202;45.498;-73.582;2023-07-31T04:35:02;100317.13;;;17.94;71.15
79006;BME280;69202;45.498;-73.582;2023-07-31T04:37:28;100527.69;;;19.03;71.56
79006;BME280;69202;45.498;-73.582;2023-07-31T04:39:54;100544.50;;;19.17;71.86
79006;BME280;69202;45.498;-73.582;2023-07-31T04:42:20;100392.56;;;18.38;70.97
79006;BME280;69202;45.498;-73.582;2023-07-31T04:44:45;100443.41;;;18.61;69.49
79006;BME280;69202;45.498;-73.582;2023-07-31T04:47:11;100421.41;;;18.51;67.16
79006;BME280;69202;45.498;-73.582;2023-07-31T04:49:37;100413.88;;;18.36;65.19
79006;BME280;69202;45.498;-73.582;2023-07-31T04:52:03;100516.50;;;19.10;66.22
79006;BME280;69202;45.498;-73.582;2023-07-31T04:54:30;100525.13;;;19.23;67.38
79006;BME280;69202;45.498;-73.582;2023-07-31T04:56:55;100426.56;;;18.69;68.13
79006;BME280;69202;45.498;-73.582;2023-07-31T04:59:21;100348.19;;;18.36;69.13
79006;BME280;69202;45.498;-73.582;2023-07-31T05:01:47;100435.31;;;19.03;69.55
79006;BME280;69202;45.498;-73.582;2023-07-31T05:04:14;100212.28;;;17.83;70.20
79006;BME280;69202;45.498;-73.582;2023-07-31T05:06:40;100463.38;;;19.53;70.48
79006;BME280;69202;45.498;-73.582;2023-07-31T05:09:06;100382.22;;;19.10;70.32
79006;BME280;69202;45.498;-73.582;2023-07-31T05:11:32;100531.63;;;19.86;69.98
79006;BME280;69202;45.498;-73.582;2023-07-31T05:13:58;100399.34;;;19.32;69.33
79006;BME280;69202;45.498;-73.582;2023-07-31T05:16:24;100522.41;;;20.03;69.06
79006;BME280;69202;45.498;-73.582;2023-07-31T05:18:50;100473.13;;;19.71;67.07
79006;BME280;69202;45.498;-73.582;2023-07-31T05:21:16;100405.31;;;19.19;64.55
79006;BME280;69202;45.498;-73.582;2023-07-31T05:23:42;100522.50;;;19.71;62.47
79006;BME280;69202;45.498;-73.582;2023-07-31T05:26:08;100394.63;;;18.85;63.78
79006;BME280;69202;45.498;-73.582;2023-07-31T05:28:38;100447.28;;;18.92;65.12
79006;BME280;69202;45.498;-73.582;2023-07-31T05:31:04;100441.13;;;19.07;66.82
79006;BME280;69202;45.498;-73.582;2023-07-31T05:33:31;100517.94;;;19.49;68.01
79006;BME280;69202;45.498;-73.582;2023-07-31T05:35:57;100512.56;;;19.65;68.87
79006;BME280;69202;45.498;-73.582;2023-07-31T05:38:23;100417.97;;;18.93;69.38
79006;BME280;69202;45.498;-73.582;2023-07-31T05:40:49;100558.31;;;19.96;69.84
79006;BME280;69202;45.498;-73.582;2023-07-31T05:43:15;100546.34;;;19.70;70.45
79006;BME280;69202;45.498;-73.582;2023-07-31T05:45:44;100558.72;;;19.78;70.18
79006;BME280;69202;45.498;-73.582;2023-07-31T05:48:10;100414.75;;;19.01;70.04
79006;BME280;69202;45.498;-73.582;2023-07-31T05:50:36;100510.38;;;19.67;70.00
79006;BME280;69202;45.498;-73.582;2023-07-31T05:53:04;100484.69;;;19.46;69.50
79006;BME280;69202;45.498;-73.582;2023-07-31T05:55:30;100430.88;;;19.29;67.52
79006;BME280;69202;45.498;-73.582;2023-07-31T05:57:56;100416.81;;;19.21;64.67
79006;BME280;69202;45.498;-73.582;2023-07-31T06:00:22;100364.25;;;18.87;62.71
79006;BME280;69202;45.498;-73.582;2023-07-31T06:02:48;100418.75;;;19.20;63.37
79006;BME280;69202;45.498;-73.582;2023-07-31T06:05:14;100402.56;;;19.19;64.75
79006;BME280;69202;45.498;-73.582;2023-07-31T06:07:41;100558.63;;;20.05;66.72
79006;BME280;69202;45.498;-73.582;2023-07-31T06:10:10;100486.06;;;19.80;67.52
79006;BME280;69202;45.498;-73.582;2023-07-31T06:12:36;100303.56;;;18.68;68.23
79006;BME280;69202;45.498;-73.582;2023-07-31T06:15:02;100340.38;;;18.82;68.98
79006;BME280;69202;45.498;-73.582;2023-07-31T06:17:29;100437.13;;;19.62;69.41
79006;BME280;69202;45.498;-73.582;2023-07-31T06:19:56;100466.81;;;19.75;69.64
79006;BME280;69202;45.498;-73.582;2023-07-31T06:22:22;100383.34;;;19.14;69.62
79006;BME280;69202;45.498;-73.582;2023-07-31T06:24:48;100542.53;;;20.29;69.52
79006;BME280;69202;45.498;-73.582;2023-07-31T06:27:14;100458.69;;;19.91;69.35
79006;BME280;69202;45.498;-73.582;2023-07-31T06:29:40;100518.69;;;20.39;68.72
79006;BME280;69202;45.498;-73.582;2023-07-31T06:32:07;100406.13;;;19.67;68.67
79006;BME280;69202;45.498;-73.582;2023-07-31T06:34:33;100447.16;;;19.94;67.89
79006;BME280;69202;45.498;-73.582;2023-07-31T06:36:59;100529.13;;;20.37;65.48
79006;BME280;69202;45.498;-73.582;2023-07-31T06:39:25;100479.59;;;20.02;62.84
79006;BME280;69202;45.498;-73.582;2023-07-31T06:41:50;100536.19;;;20.13;61.99
79006;BME280;69202;45.498;-73.582;2023-07-31T06:44:16;100374.94;;;19.30;63.53
79006;BME280;69202;45.498;-73.582;2023-07-31T06:46:42;100463.84;;;19.82;65.31
79006;BME280;69202;45.498;-73.582;2023-07-31T06:49:08;100409.66;;;19.57;66.41
79006;BME280;69202;45.498;-73.582;2023-07-31T06:51:34;100361.50;;;19.29;67.40
79006;BME280;69202;45.498;-73.582;2023-07-31T06:54:01;100385.19;;;19.50;68.77
79006;BME280;69202;45.498;-73.582;2023-07-31T06:56:27;100503.28;;;20.23;69.56
79006;BME280;69202;45.498;-73.582;2023-07-31T06:58:53;100330.53;;;19.28;69.40
79006;BME280;69202;45.498;-73.582;2023-07-31T07:01:19;100314.88;;;19.24;69.48
79006;BME280;69202;45.498;-73.582;2023-07-31T07:03:45;100483.50;;;20.31;69.39
79006;BME280;69202;45.498;-73.582;2023-07-31T07:06:10;100436.72;;;20.01;69.33
79006;BME280;69202;45.498;-73.582;2023-07-31T07:08:36;100490.94;;;20.26;69.41
79006;BME280;69202;45.498;-73.582;2023-07-31T07:11:02;100421.88;;;19.81;69.01
79006;BME280;69202;45.498;-73.582;2023-07-31T07:13:29;100255.66;;;18.65;66.69
79006;BME280;69202;45.498;-73.582;2023-07-31T07:15:55;100417.97;;;19.72;63.76
79006;BME280;69202;45.498;-73.582;2023-07-31T07:18:21;100479.00;;;20.00;62.97
79006;BME280;69202;45.498;-73.582;2023-07-31T07:20:51;100220.84;;;18.29;64.83
79006;BME280;69202;45.498;-73.582;2023-07-31T07:23:17;100282.03;;;18.50;66.21
79006;BME280;69202;45.498;-73.582;2023-07-31T07:25:44;100468.28;;;19.93;67.49
79006;BME280;69202;45.498;-73.582;2023-07-31T07:28:10;100480.13;;;20.04;68.67
79006;BME280;69202;45.498;-73.582;2023-07-31T07:30:36;100395.94;;;19.57;69.37
79006;BME280;69202;45.498;-73.582;2023-07-31T07:33:02;100417.94;;;19.67;69.95
79006;BME280;69202;45.498;-73.582;2023-07-31T07:35:28;100301.88;;;18.99;70.44
79006;BME280;69202;45.498;-73.582;2023-07-31T07:37:54;100298.53;;;18.92;70.28
79006;BME280;69202;45.498;-73.582;2023-07-31T07:40:21;100437.25;;;19.87;70.34
79006;BME280;69202;45.498;-73.582;2023-07-31T07:42:47;100471.63;;;20.05;70.18
79006;BME280;69202;45.498;-73.582;2023-07-31T07:45:13;100413.31;;;19.78;69.70
79006;BME280;69202;45.498;-73.582;2023-07-31T07:47:42;100455.94;;;19.96;69.56
79006;BME280;69202;45.498;-73.582;2023-07-31T07:50:08;100262.00;;;18.76;69.15
79006;BME280;69202;45.498;-73.582;2023-07-31T07:52:34;100477.31;;;19.88;67.61
79006;BME280;69202;45.498;-73.582;2023-07-31T07:55:00;100381.47;;;19.19;64.97
79006;BME280;69202;45.498;-73.582;2023-07-31T07:57:26;100419.66;;;19.36;64.73
79006;BME280;69202;45.498;-73.582;2023-07-31T07:59:52;100365.59;;;18.84;66.11
79006;BME280;69202;45.498;-73.582;2023-07-31T08:02:18;100319.38;;;18.61;68.08
79006;BME280;69202;45.498;-73.582;2023-07-31T08:04:44;100238.47;;;18.06;69.24
79006;BME280;69202;45.498;-73.582;2023-07-31T08:07:13;100369.47;;;18.88;70.31
79006;BME280;69202;45.498;-73.582;2023-07-31T08:09:39;100310.88;;;18.57;71.10
79006;BME280;69202;45.498;-73.582;2023-07-31T08:12:06;100430.28;;;19.27;71.52
79006;BME280;69202;45.498;-73.582;2023-07-31T08:14:32;100271.00;;;18.39;71.37
79006;BME280;69202;45.498;-73.582;2023-07-31T08:16:58;100407.44;;;19.12;71.36
79006;BME280;69202;45.498;-73.582;2023-07-31T08:19:24;100506.59;;;19.78;71.39
79006;BME280;69202;45.498;-73.582;2023-07-31T08:21:50;100405.88;;;19.26;70.98
79006;BME280;69202;45.498;-73.582;2023-07-31T08:24:16;100453.84;;;19.60;70.96
79006;BME280;69202;45.498;-73.582;2023-07-31T08:26:42;100392.44;;;19.24;70.20
79006;BME280;69202;45.498;-73.582;2023-07-31T08:29:08;100333.16;;;18.71;70.37
79006;BME280;69202;45.498;-73.582;2023-07-31T08:31:34;100414.63;;;19.18;70.09
79006;BME280;69202;45.498;-73.582;2023-07-31T08:34:00;100518.72;;;19.87;69.85
79006;BME280;69202;45.498;-73.582;2023-07-31T08:36:26;100474.16;;;19.65;68.46
79006;BME280;69202;45.498;-73.582;2023-07-31T08:38:52;100424.72;;;19.17;66.44
79006;BME280;69202;45.498;-73.582;2023-07-31T08:41:19;100215.00;;;17.61;64.47
79006;BME280;69202;45.498;-73.582;2023-07-31T08:43:49;100433.88;;;18.96;64.79
79006;BME280;69202;45.498;-73.582;2023-07-31T08:46:16;100519.31;;;19.52;66.01
79006;BME280;69202;45.498;-73.582;2023-07-31T08:48:42;100367.28;;;18.58;67.34
79006;BME280;69202;45.498;-73.582;2023-07-31T08:51:09;100528.91;;;19.54;68.88
79006;BME280;69202;45.498;-73.582;2023-07-31T08:53:35;100532.75;;;19.53;69.90
79006;BME280;69202;45.498;-73.582;2023-07-31T08:56:02;100531.66;;;19.49;71.12
79006;BME280;69202;45.498;-73.582;2023-07-31T08:58:31;100528.91;;;19.49;71.67
79006;BME280;69202;45.498;-73.582;2023-07-31T09:01:01;100449.03;;;19.03;71.56
79006;BME280;69202;45.498;-73.582;2023-07-31T09:03:33;100415.44;;;18.81;71.62
79006;BME280;69202;45.498;-73.582;2023-07-31T09:06:03;100385.91;;;18.61;71.28
79006;BME280;69202;45.498;-73.582;2023-07-31T09:08:31;100340.81;;;18.37;71.45
79006;BME280;69202;45.498;-73.582;2023-07-31T09:11:01;100493.31;;;19.22;71.04
79006;BME280;69202;45.498;-73.582;2023-07-31T09:13:31;100520.34;;;19.46;71.15
79006;BME280;69202;45.498;-73.582;2023-07-31T09:15:58;100499.72;;;19.38;70.38
79006;BME280;69202;45.498;-73.582;2023-07-31T09:18:24;100380.34;;;18.51;69.31
79006;BME280;69202;45.498;-73.582;2023-07-31T09:21:04;100349.28;;;18.35;69.39
79006;BME280;69202;45.498;-73.582;2023-07-31T09:23:44;100401.34;;;18.67;67.04
79006;BME280;69202;45.498;-73.582;2023-07-31T09:26:11;100396.13;;;18.39;65.50
79006;BME280;69202;45.498;-73.582;2023-07-31T09:28:37;100419.09;;;18.38;66.24
79006;BME280;69202;45.498;-73.582;2023-07-31T09:31:03;100542.91;;;19.21;67.67
79006;BME280;69202;45.498;-73.582;2023-07-31T09:33:29;100414.16;;;18.35;68.95
79006;BME280;69202;45.498;-73.582;2023-07-31T09:35:58;100509.41;;;19.14;69.37
79006;BME280;69202;45.498;-73.582;2023-07-31T09:38:26;100554.44;;;19.23;70.47
79006;BME280;69202;45.498;-73.582;2023-07-31T09:40:52;100527.25;;;19.16;72.15
79006;BME280;69202;45.498;-73.582;2023-07-31T09:43:20;100555.19;;;19.45;71.62
79006;BME280;69202;45.498;-73.582;2023-07-31T09:45:46;100491.00;;;19.09;70.90
79006;BME280;69202;45.498;-73.582;2023-07-31T09:48:17;100389.63;;;18.45;70.53
79006;BME280;69202;45.498;-73.582;2023-07-31T09:50:48;100399.28;;;18.26;71.22
79006;BME280;69202;45.498;-73.582;2023-07-31T09:53:16;100518.63;;;19.02;71.28
79006;BME280;69202;45.498;-73.582;2023-07-31T09:55:44;100541.38;;;19.35;70.80
79006;BME280;69202;45.498;-73.582;2023-07-31T09:58:11;100549.59;;;19.35;70.33
79006;BME280;69202;45.498;-73.582;2023-07-31T10:00:38;100483.63;;;19.10;69.58
79006;BME280;69202;45.498;-73.582;2023-07-31T10:03:06;100451.00;;;18.76;69.79
79006;BME280;69202;45.498;-73.582;2023-07-31T10:05:46;100492.19;;;19.18;69.69
79006;BME280;69202;45.498;-73.582;2023-07-31T10:08:15;100551.25;;;19.63;69.55
79006;BME280;69202;45.498;-73.582;2023-07-31T10:10:44;100435.81;;;18.95;68.75
79006;BME280;69202;45.498;-73.582;2023-07-31T10:13:10;100491.94;;;19.20;68.80
79006;BME280;69202;45.498;-73.582;2023-07-31T10:15:36;100285.88;;;17.89;68.78
79006;BME280;69202;45.498;-73.582;2023-07-31T10:18:05;100456.44;;;19.03;68.68
79006;BME280;69202;45.498;-73.582;2023-07-31T10:20:32;100533.84;;;19.52;66.73
79006;BME280;69202;45.498;-73.582;2023-07-31T10:22:59;100566.00;;;19.57;64.68
79006;BME280;69202;45.498;-73.582;2023-07-31T10:25:29;100520.09;;;19.15;64.08
79006;BME280;69202;45.498;-73.582;2023-07-31T10:27:57;100292.09;;;17.58;65.69
79006;BME280;69202;45.498;-73.582;2023-07-31T10:30:27;100369.84;;;17.89;67.41
79006;BME280;69202;45.498;-73.582;2023-07-31T10:32:55;100466.72;;;18.64;68.51
79006;BME280;69202;45.498;-73.582;2023-07-31T10:35:21;100483.81;;;18.71;68.98
79006;BME280;69202;45.498;-73.582;2023-07-31T10:37:51;100553.44;;;19.34;69.83
79006;BME280;69202;45.498;-73.582;2023-07-31T10:40:19;100421.69;;;18.50;70.61
79006;BME280;69202;45.498;-73.582;2023-07-31T10:42:53;100533.34;;;19.23;70.01
79006;BME280;69202;45.498;-73.582;2023-07-31T10:45:37;100499.34;;;18.92;69.48
79006;BME280;69202;45.498;-73.582;2023-07-31T10:48:05;100602.16;;;19.54;69.78
79006;BME280;69202;45.498;-73.582;2023-07-31T10:50:33;100519.06;;;18.89;69.89
79006;BME280;69202;45.498;-73.582;2023-07-31T10:53:02;100391.97;;;18.09;69.52
79006;BME280;69202;45.498;-73.582;2023-07-31T10:55:35;100405.13;;;18.34;68.88
79006;BME280;69202;45.498;-73.582;2023-07-31T11:00:37;100544.09;;;19.30;68.48
79006;BME280;69202;45.498;-73.582;2023-07-31T11:03:08;100453.03;;;18.64;68.25
79006;BME280;69202;45.498;-73.582;2023-07-31T11:06:03;100629.06;;;19.57;68.63
79006;BME280;69202;45.498;-73.582;2023-07-31T11:13:33;100645.63;;;19.67;68.97
79006;BME280;69202;45.498;-73.582;2023-07-31T11:16:00;100564.94;;;19.31;68.37
79006;BME280;69202;45.498;-73.582;2023-07-31T11:18:26;100641.25;;;20.03;68.44
79006;BME280;69202;45.498;-73.582;2023-07-31T11:20:53;100587.19;;;19.67;67.39
79006;BME280;69202;45.498;-73.582;2023-07-31T11:23:19;100450.22;;;18.81;64.39
79006;BME280;69202;45.498;-73.582;2023-07-31T11:25:45;100623.41;;;19.69;62.17
79006;BME280;69202;45.498;-73.582;2023-07-31T11:28:13;100618.38;;;19.55;63.56
79006;BME280;69202;45.498;-73.582;2023-07-31T11:30:40;100598.09;;;19.29;65.54
79006;BME280;69202;45.498;-73.582;2023-07-31T11:33:07;100443.19;;;18.36;66.72
79006;BME280;69202;45.498;-73.582;2023-07-31T11:35:36;100643.75;;;19.73;67.19
79006;BME280;69202;45.498;-73.582;2023-07-31T11:38:07;100666.91;;;19.87;68.58
79006;BME280;69202;45.498;-73.582;2023-07-31T11:40:43;100604.88;;;19.54;68.62
79006;BME280;69202;45.498;-73.582;2023-07-31T11:43:10;100667.00;;;19.97;68.78
79006;BME280;69202;45.498;-73.582;2023-07-31T11:45:48;100483.47;;;18.94;67.63
79006;BME280;69202;45.498;-73.582;2023-07-31T11:50:50;100647.34;;;19.73;67.65
79006;BME280;69202;45.498;-73.582;2023-07-31T11:53:20;100655.19;;;19.97;66.20
79006;BME280;69202;45.498;-73.582;2023-07-31T11:55:49;100434.38;;;18.61;67.38
79006;BME280;69202;45.498;-73.582;2023-07-31T11:58:16;100692.81;;;20.33;66.84
79006;BME280;69202;45.498;-73.582;2023-07-31T12:00:43;100600.44;;;19.75;66.38
79006;BME280;69202;45.498;-73.582;2023-07-31T12:03:10;100592.75;;;19.77;66.46
79006;BME280;69202;45.498;-73.582;2023-07-31T12:05:37;100673.59;;;20.38;66.74
79006;BME280;69202;45.498;-73.582;2023-07-31T12:08:09;100684.38;;;20.45;64.86
79006;BME280;69202;45.498;-73.582;2023-07-31T12:10:39;100687.00;;;20.30;62.24
79006;BME280;69202;45.498;-73.582;2023-07-31T12:13:20;100707.63;;;20.32;62.66
79006;BME280;69202;45.498;-73.582;2023-07-31T12:15:46;100662.03;;;19.94;64.25
79006;BME280;69202;45.498;-73.582;2023-07-31T12:18:22;100631.69;;;19.74;65.99
79006;BME280;69202;45.498;-73.582;2023-07-31T12:20:49;100652.66;;;19.90;66.86
79006;BME280;69202;45.498;-73.582;2023-07-31T12:23:25;100714.53;;;20.40;66.60
79006;BME280;69202;45.498;-73.582;2023-07-31T12:26:13;100706.22;;;20.67;66.18
79006;BME280;69202;45.498;-73.582;2023-07-31T12:28:50;100652.81;;;20.48;65.58
79006;BME280;69202;45.498;-73.582;2023-07-31T12:31:18;100604.75;;;20.50;64.69
79006;BME280;69202;45.498;-73.582;2023-07-31T12:33:45;100698.56;;;21.47;63.15
79006;BME280;69202;45.498;-73.582;2023-07-31T12:36:17;100704.91;;;21.63;61.64
79006;BME280;69202;45.498;-73.582;2023-07-31T12:38:44;100709.03;;;21.60;58.64
79006;BME280;69202;45.498;-73.582;2023-07-31T12:41:11;100699.44;;;21.68;56.73
79006;BME280;69202;45.498;-73.582;2023-07-31T12:43:39;100642.16;;;21.44;57.61
79006;BME280;69202;45.498;-73.582;2023-07-31T12:46:05;100669.97;;;21.63;58.78